Time;durP1;ratioP1;P1;durP2;ratioP2;P2;SDS_P1;SDS_P2;PMS_P1;PMS_P2;Temp;Humidity;BMP_temperature;BMP_pressure;BME280_temperature;BME280_humidity;BME280_pressure;Samples;Min_cycle;Max_cycle;Signal;HPM_P1;HPM_P2
2023/01/10 00:02:07;;;;;;;2.27;2.07;;;3.20;99.90;;;;;;6183588;23;20195;-80
2023/01/10 00:04:36;;;;;;;2.10;1.90;;;3.20;99.90;;;;;;6183546;23;20267;-81
2023/01/10 00:07:04;;;;;;;2.60;1.90;;;3.20;99.90;;;;;;6182110;23;20193;-80
2023/01/10 00:09:33;;;;;;;2.10;1.90;;;3.20;99.90;;;;;;6183363;23;20263;-79
2023/01/10 00:14:47;;;;;;;1.87;1.77;;;3.20;99.90;;;;;;6181611;23;20180;-79
2023/01/10 00:17:15;;;;;;;2.00;1.80;;;3.20;99.90;;;;;;6184041;23;20181;-79
2023/01/10 00:19:43;;;;;;;2.73;1.87;;;3.20;99.90;;;;;;6183984;23;20215;-78
2023/01/10 00:22:18;;;;;;;2.20;1.90;;;3.20;99.90;;;;;;6184110;23;20252;-79
2023/01/10 00:24:48;;;;;;;2.00;1.80;;;3.20;99.90;;;;;;6182960;23;20161;-80
2023/01/10 00:27:20;;;;;;;2.23;1.87;;;3.20;99.90;;;;;;6183776;23;20197;-77
2023/01/10 00:29:51;;;;;;;2.23;2.03;;;3.10;99.90;;;;;;6184704;23;20170;-80
2023/01/10 00:32:19;;;;;;;2.60;1.90;;;3.20;99.90;;;;;;6183688;23;20169;-80
2023/01/10 00:34:47;;;;;;;2.57;2.20;;;3.20;99.90;;;;;;6183055;23;20288;-80
2023/01/10 00:37:15;;;;;;;2.13;1.93;;;3.20;99.90;;;;;;6186877;23;20268;-79
2023/01/10 00:39:43;;;;;;;2.47;2.03;;;3.10;99.90;;;;;;6185738;23;20185;-79
2023/01/10 00:44:58;;;;;;;2.67;2.00;;;3.00;99.90;;;;;;6184840;23;21085;-80
2023/01/10 00:47:26;;;;;;;2.93;2.00;;;3.00;99.90;;;;;;6185641;23;20344;-79
2023/01/10 00:49:54;;;;;;;2.30;2.10;;;2.90;99.90;;;;;;6184938;23;20196;-80
2023/01/10 00:52:22;;;;;;;3.03;2.13;;;2.90;99.90;;;;;;6185638;23;20181;-80
2023/01/10 00:54:51;;;;;;;3.27;2.03;;;2.90;99.90;;;;;;6184071;23;20228;-81
2023/01/10 00:57:20;;;;;;;2.83;2.00;;;2.90;99.90;;;;;;6185232;23;20828;-81
2023/01/10 00:59:48;;;;;;;2.63;2.17;;;2.80;99.90;;;;;;6186036;23;20189;-80
2023/01/10 01:02:16;;;;;;;3.73;2.30;;;2.80;99.90;;;;;;6185872;23;20220;-79
2023/01/10 01:04:45;;;;;;;3.57;2.37;;;2.80;99.90;;;;;;6185007;23;20192;-80
2023/01/10 01:07:13;;;;;;;3.40;2.10;;;2.90;99.90;;;;;;6185164;23;20191;-80
2023/01/10 01:12:25;;;;;;;3.23;2.23;;;3.00;99.90;;;;;;6184944;23;20188;-80
2023/01/10 01:14:53;;;;;;;3.07;2.20;;;3.00;99.90;;;;;;6184261;23;20205;-81
2023/01/10 01:17:21;;;;;;;3.67;2.20;;;3.00;99.90;;;;;;6185217;23;20181;-80
2023/01/10 01:19:49;;;;;;;2.50;2.10;;;3.00;99.90;;;;;;6185229;23;20212;-81
2023/01/10 01:22:17;;;;;;;3.30;2.40;;;3.10;99.90;;;;;;6185170;23;20182;-80
2023/01/10 01:24:45;;;;;;;2.57;2.10;;;3.10;99.90;;;;;;6183015;23;20177;-81
2023/01/10 01:27:13;;;;;;;5.73;2.20;;;3.10;99.90;;;;;;6182813;23;20514;-80
2023/01/10 01:29:43;;;;;;;3.77;2.13;;;3.10;99.90;;;;;;6184953;23;20201;-79
2023/01/10 01:32:11;;;;;;;2.00;1.90;;;3.20;99.90;;;;;;6184846;23;20296;-78
2023/01/10 01:34:39;;;;;;;3.40;1.90;;;3.20;99.90;;;;;;6183589;23;20583;-79
2023/01/10 01:37:11;;;;;;;4.50;2.60;;;3.10;99.90;;;;;;6184690;23;20185;-77
2023/01/10 01:39:39;;;;;;;2.57;2.10;;;3.20;99.90;;;;;;6186164;23;20208;-74
2023/01/10 01:42:21;;;;;;;3.33;2.00;;;3.20;99.90;;;;;;6185627;23;20181;-77
2023/01/10 01:45:23;;;;;;;3.27;2.10;;;3.20;99.90;;;;;;6185609;23;20171;-76
2023/01/10 01:47:57;;;;;;;3.40;2.17;;;3.20;99.90;;;;;;6186317;23;20191;-75
2023/01/10 01:50:28;;;;;;;2.80;1.70;;;3.20;99.90;;;;;;6185333;23;20265;-81
2023/01/10 01:53:00;;;;;;;3.93;1.90;;;3.30;99.90;;;;;;6184891;23;20173;-80
2023/01/10 01:55:31;;;;;;;3.93;2.20;;;3.20;99.90;;;;;;6184114;23;20268;-80
2023/01/10 01:58:05;;;;;;;3.40;2.10;;;3.20;99.90;;;;;;6184824;23;20181;-80
2023/01/10 02:00:34;;;;;;;4.33;2.00;;;3.20;99.90;;;;;;6184546;23;20530;-78
2023/01/10 02:03:05;;;;;;;2.17;1.80;;;3.20;99.90;;;;;;6184417;23;20185;-78
2023/01/10 02:05:36;;;;;;;2.90;2.13;;;3.20;99.90;;;;;;6183791;23;20188;-80
2023/01/10 02:08:05;;;;;;;2.67;2.10;;;3.20;99.90;;;;;;6185033;23;20263;-80
2023/01/10 02:10:41;;;;;;;2.30;2.10;;;3.30;99.90;;;;;;6184196;23;20181;-80
2023/01/10 02:13:14;;;;;;;3.17;2.00;;;3.30;99.90;;;;;;6184549;23;20218;-80
2023/01/10 02:15:42;;;;;;;4.60;2.00;;;3.30;99.90;;;;;;6183815;23;20185;-82
2023/01/10 02:18:12;;;;;;;2.73;2.03;;;3.30;99.90;;;;;;6184379;23;20704;-82
2023/01/10 02:21:05;;;;;;;2.03;1.80;;;3.40;99.90;;;;;;6184778;23;20645;-79
2023/01/10 02:24:10;;;;;;;2.40;1.90;;;3.30;99.90;;;;;;6184140;23;20251;-80
2023/01/10 02:27:06;;;;;;;3.03;2.20;;;3.40;99.90;;;;;;6184520;23;20171;-79
2023/01/10 02:30:09;;;;;;;3.67;2.60;;;3.40;99.90;;;;;;6184730;23;20184;-79
2023/01/10 02:32:44;;;;;;;2.80;2.20;;;3.40;99.90;;;;;;6183651;23;20181;-81
2023/01/10 02:35:53;;;;;;;3.03;1.97;;;3.40;99.90;;;;;;6183567;23;20280;-80
2023/01/10 02:38:29;;;;;;;3.20;1.90;;;3.40;99.90;;;;;;6182730;23;20166;-81
2023/01/10 02:41:06;;;;;;;2.90;1.80;;;3.40;99.90;;;;;;6184321;23;20712;-80
2023/01/10 02:43:38;;;;;;;2.83;1.97;;;3.40;99.90;;;;;;6183195;23;20247;-80
2023/01/10 02:46:10;;;;;;;3.33;1.90;;;3.40;99.90;;;;;;6183862;23;20252;-80
2023/01/10 02:48:39;;;;;;;1.73;1.63;;;3.40;99.90;;;;;;6184828;23;20212;-80
2023/01/10 02:51:14;;;;;;;2.63;2.17;;;3.40;99.90;;;;;;6184225;23;20185;-78
2023/01/10 02:53:46;;;;;;;2.83;2.20;;;3.30;99.90;;;;;;6183457;23;20251;-78
2023/01/10 02:56:34;;;;;;;2.93;2.17;;;3.30;99.90;;;;;;6183829;23;20606;-80
2023/01/10 02:59:22;;;;;;;2.60;2.10;;;3.30;99.90;;;;;;6183947;23;20260;-79
2023/01/10 03:01:59;;;;;;;4.03;2.30;;;3.30;99.90;;;;;;6184909;23;20185;-80
2023/01/10 03:04:40;;;;;;;3.40;2.60;;;3.30;99.90;;;;;;6183637;23;20219;-79
2023/01/10 03:07:18;;;;;;;4.23;2.57;;;3.30;99.90;;;;;;6183709;23;20493;-80
2023/01/10 03:09:54;;;;;;;3.00;2.60;;;3.20;99.90;;;;;;6184578;23;20165;-81
2023/01/10 03:12:28;;;;;;;4.13;2.87;;;3.20;99.90;;;;;;6183570;23;20181;-80
2023/01/10 03:14:59;;;;;;;3.67;2.80;;;3.20;99.90;;;;;;6183431;23;20189;-80
2023/01/10 03:17:29;;;;;;;4.10;2.87;;;3.20;99.90;;;;;;6183878;23;20215;-80
2023/01/10 03:20:03;;;;;;;4.80;3.03;;;3.20;99.90;;;;;;6184911;23;20184;-80
2023/01/10 03:22:38;;;;;;;3.43;2.97;;;3.20;99.90;;;;;;6183641;23;20183;-80
2023/01/10 03:25:10;;;;;;;4.47;3.17;;;3.20;99.90;;;;;;6183142;23;20200;-80
2023/01/10 03:27:46;;;;;;;4.90;3.30;;;3.10;99.90;;;;;;6184037;23;20177;-79
2023/01/10 03:30:21;;;;;;;4.23;3.30;;;3.10;99.90;;;;;;6184001;23;20164;-81
2023/01/10 03:32:49;;;;;;;5.37;3.77;;;3.10;99.90;;;;;;6183899;23;20208;-79
2023/01/10 03:35:22;;;;;;;5.60;3.73;;;3.10;99.90;;;;;;6183172;23;20232;-80
2023/01/10 03:37:56;;;;;;;6.40;3.77;;;3.10;99.90;;;;;;6184473;23;20255;-80
2023/01/10 03:40:30;;;;;;;4.97;3.73;;;3.10;99.90;;;;;;6182855;23;20168;-80
2023/01/10 03:45:55;;;;;;;6.63;4.37;;;3.00;99.90;;;;;;6184304;23;20171;-79
2023/01/10 03:48:28;;;;;;;5.43;3.87;;;3.10;99.90;;;;;;6183961;23;20169;-80
2023/01/10 03:51:00;;;;;;;5.63;4.03;;;3.10;99.90;;;;;;6184531;23;20240;-78
2023/01/10 03:53:28;;;;;;;5.63;3.77;;;3.10;99.90;;;;;;6183310;23;20189;-79
2023/01/10 03:55:56;;;;;;;5.23;4.00;;;3.10;99.90;;;;;;6182134;23;20228;-78
2023/01/10 03:58:25;;;;;;;5.60;3.63;;;3.10;99.90;;;;;;6183332;23;20264;-79
2023/01/10 04:00:53;;;;;;;6.40;3.80;;;3.10;99.90;;;;;;6184352;23;20268;-79
2023/01/10 04:03:21;;;;;;;5.23;3.70;;;3.00;99.90;;;;;;6183583;23;20995;-78
2023/01/10 04:05:49;;;;;;;5.57;3.33;;;3.10;99.90;;;;;;6183325;23;20188;-78
2023/01/10 04:08:19;;;;;;;6.23;3.50;;;3.00;99.90;;;;;;6184014;23;20236;-77
2023/01/10 04:10:49;;;;;;;4.43;3.70;;;3.00;99.90;;;;;;6186067;23;20196;-78
2023/01/10 04:13:17;;;;;;;4.67;3.17;;;3.00;99.90;;;;;;6184481;23;20189;-80
2023/01/10 04:15:45;;;;;;;4.50;3.30;;;3.10;99.90;;;;;;6185349;23;20204;-80
2023/01/10 04:18:14;;;;;;;4.70;3.30;;;3.00;99.90;;;;;;6185916;23;20657;-79
2023/01/10 04:20:42;;;;;;;4.10;3.23;;;3.00;99.90;;;;;;6185854;23;20215;-80
2023/01/10 04:23:10;;;;;;;4.40;2.90;;;3.00;99.90;;;;;;6185302;23;20244;-78
2023/01/10 04:25:40;;;;;;;4.13;3.20;;;3.00;99.90;;;;;;6185648;23;20637;-79
2023/01/10 04:28:08;;;;;;;4.60;3.37;;;3.00;99.90;;;;;;6186080;23;20522;-79
2023/01/10 04:30:36;;;;;;;3.33;3.03;;;3.00;99.90;;;;;;6186005;23;20223;-80
2023/01/10 04:33:06;;;;;;;5.50;3.30;;;3.00;99.90;;;;;;6185309;23;20201;-79
2023/01/10 04:35:34;;;;;;;4.73;3.43;;;3.00;99.90;;;;;;6185316;23;20268;-79
2023/01/10 04:38:02;;;;;;;3.57;2.97;;;3.00;99.90;;;;;;6185085;23;20181;-80
2023/01/10 04:40:30;;;;;;;3.20;2.90;;;3.10;99.90;;;;;;6185792;23;20191;-80
2023/01/10 04:42:59;;;;;;;4.30;2.83;;;3.00;99.90;;;;;;6185130;23;20188;-80
2023/01/10 04:45:28;;;;;;;6.50;3.70;;;3.00;99.90;;;;;;6185163;23;20634;-80
2023/01/10 04:47:56;;;;;;;3.47;2.80;;;3.00;99.90;;;;;;6185833;23;20216;-79
2023/01/10 04:50:25;;;;;;;3.47;3.00;;;3.00;99.90;;;;;;6186073;23;20185;-79
2023/01/10 04:52:53;;;;;;;6.87;3.90;;;3.00;99.90;;;;;;6185266;23;20255;-79
2023/01/10 04:55:22;;;;;;;4.33;3.27;;;3.00;99.90;;;;;;6185708;23;20284;-80
2023/01/10 04:57:50;;;;;;;4.00;3.20;;;3.00;99.90;;;;;;6185927;23;20187;-77
2023/01/10 05:00:20;;;;;;;4.30;3.33;;;3.00;99.90;;;;;;6185611;23;20180;-78
2023/01/10 05:02:48;;;;;;;5.70;3.40;;;3.00;99.90;;;;;;6191855;23;20185;-80
2023/01/10 05:05:17;;;;;;;5.80;3.20;;;3.00;99.90;;;;;;6186022;23;20208;-78
2023/01/10 05:07:48;;;;;;;4.47;3.23;;;3.00;99.90;;;;;;6186364;23;20221;-79
2023/01/10 05:10:17;;;;;;;4.37;3.13;;;3.00;99.90;;;;;;6185512;23;20229;-79
2023/01/10 05:12:46;;;;;;;3.80;3.10;;;3.00;99.90;;;;;;6185440;23;20188;-79
2023/01/10 05:15:14;;;;;;;4.80;3.10;;;3.00;99.90;;;;;;6184327;23;20651;-78
2023/01/10 05:17:43;;;;;;;4.87;3.23;;;3.00;99.90;;;;;;6185522;23;20185;-80
2023/01/10 05:20:13;;;;;;;3.77;3.03;;;2.90;99.90;;;;;;6185156;23;20645;-78
2023/01/10 05:22:41;;;;;;;5.07;3.67;;;3.00;99.90;;;;;;6185263;23;20181;-79
2023/01/10 05:25:09;;;;;;;4.53;3.30;;;3.00;99.90;;;;;;6184213;23;20260;-80
2023/01/10 05:27:40;;;;;;;6.57;3.57;;;3.00;99.90;;;;;;6185391;23;20725;-79
2023/01/10 05:30:11;;;;;;;4.70;3.70;;;3.00;99.90;;;;;;6184887;23;20252;-80
2023/01/10 05:32:39;;;;;;;4.50;3.70;;;3.00;99.90;;;;;;6185262;23;20207;-79
2023/01/10 05:35:09;;;;;;;5.00;4.00;;;3.00;99.90;;;;;;6184159;23;20264;-75
2023/01/10 05:37:38;;;;;;;5.90;3.90;;;3.00;99.90;;;;;;6184984;23;20177;-75
2023/01/10 05:40:07;;;;;;;5.87;3.83;;;3.00;99.90;;;;;;6186343;23;20187;-75
2023/01/10 05:42:35;;;;;;;5.30;4.30;;;3.00;99.90;;;;;;6186049;23;20492;-76
2023/01/10 05:45:05;;;;;;;5.17;4.17;;;3.00;99.90;;;;;;6184090;23;20193;-79
2023/01/10 05:47:33;;;;;;;4.77;3.67;;;3.00;99.90;;;;;;6185152;23;20708;-78
2023/01/10 05:50:01;;;;;;;4.50;3.90;;;3.00;99.90;;;;;;6185686;23;20191;-80
2023/01/10 05:52:30;;;;;;;4.60;3.93;;;3.00;99.90;;;;;;6184915;23;20252;-78
2023/01/10 05:54:58;;;;;;;3.80;3.40;;;3.00;99.90;;;;;;6184107;23;20185;-80
2023/01/10 05:57:27;;;;;;;5.70;4.00;;;3.00;99.90;;;;;;6184981;23;20201;-77
2023/01/10 05:59:55;;;;;;;5.60;3.80;;;2.90;99.90;;;;;;6184605;23;20181;-80
2023/01/10 06:02:25;;;;;;;7.07;3.93;;;3.00;99.90;;;;;;6185092;23;20216;-80
2023/01/10 06:04:54;;;;;;;5.20;4.23;;;3.00;99.90;;;;;;6184740;23;20523;-81
2023/01/10 06:07:22;;;;;;;5.20;4.50;;;3.00;99.90;;;;;;6185640;23;20185;-79
2023/01/10 06:09:52;;;;;;;6.03;4.33;;;3.00;99.90;;;;;;6186814;23;20208;-80
2023/01/10 06:12:21;;;;;;;6.20;4.37;;;3.00;99.90;;;;;;6178769;23;20197;-76
2023/01/10 06:14:49;;;;;;;5.43;4.27;;;2.90;99.90;;;;;;6183203;23;20181;-80
2023/01/10 06:17:17;;;;;;;6.50;4.17;;;2.90;99.90;;;;;;6183771;23;20207;-78
2023/01/10 06:19:45;;;;;;;4.63;4.20;;;3.00;99.90;;;;;;6184493;23;20215;-80
2023/01/10 06:22:13;;;;;;;5.53;4.50;;;3.00;99.90;;;;;;6183844;23;20188;-80
2023/01/10 06:24:42;;;;;;;5.73;4.57;;;3.00;99.90;;;;;;6182850;23;20181;-79
2023/01/10 06:27:11;;;;;;;5.40;4.60;;;3.00;99.90;;;;;;6183073;23;20865;-79
2023/01/10 06:29:39;;;;;;;5.37;4.60;;;3.00;99.90;;;;;;6184017;23;20242;-79
2023/01/10 06:32:07;;;;;;;5.57;4.93;;;3.00;99.90;;;;;;6182861;23;20176;-80
2023/01/10 06:34:35;;;;;;;5.80;4.50;;;2.90;99.90;;;;;;6182690;23;20201;-78
2023/01/10 06:37:04;;;;;;;6.13;5.20;;;3.00;99.90;;;;;;6184269;23;20284;-75
2023/01/10 06:39:32;;;;;;;5.77;4.83;;;2.90;99.90;;;;;;6186585;23;20268;-75
2023/01/10 06:42:00;;;;;;;7.20;5.50;;;2.90;99.90;;;;;;6185197;23;20239;-76
2023/01/10 06:44:29;;;;;;;6.77;5.63;;;3.00;99.90;;;;;;6184095;23;20268;-76
2023/01/10 06:46:58;;;;;;;9.33;7.17;;;3.00;99.90;;;;;;6185302;23;20176;-80
2023/01/10 06:49:26;;;;;;;8.60;6.27;;;3.00;99.90;;;;;;6184680;23;20184;-79
2023/01/10 06:51:54;;;;;;;7.93;6.17;;;3.00;99.90;;;;;;6184893;23;20260;-79
2023/01/10 06:54:22;;;;;;;7.03;6.33;;;3.00;99.90;;;;;;6184437;23;20271;-79
2023/01/10 06:56:50;;;;;;;6.80;6.10;;;2.90;99.90;;;;;;6184890;23;20668;-79
2023/01/10 06:59:18;;;;;;;8.93;6.00;;;3.00;99.90;;;;;;6185099;23;20207;-76
2023/01/10 07:01:48;;;;;;;6.97;5.87;;;3.00;99.90;;;;;;6184377;23;20185;-79
2023/01/10 07:04:16;;;;;;;6.60;6.00;;;3.00;99.90;;;;;;6184204;23;20181;-75
2023/01/10 07:06:45;;;;;;;6.50;5.90;;;2.90;99.90;;;;;;6184763;23;20185;-79
2023/01/10 07:09:13;;;;;;;6.80;6.10;;;3.00;99.90;;;;;;6184762;23;20184;-79
2023/01/10 07:11:41;;;;;;;6.73;6.03;;;2.90;99.90;;;;;;6184029;23;20259;-79
2023/01/10 07:14:09;;;;;;;8.17;6.00;;;3.00;99.90;;;;;;6183372;23;20176;-79
2023/01/10 07:16:37;;;;;;;7.03;6.10;;;3.00;99.90;;;;;;6185064;23;20247;-77
2023/01/10 07:19:07;;;;;;;6.20;5.60;;;2.90;99.90;;;;;;6183939;23;20176;-80
2023/01/10 07:21:35;;;;;;;7.00;6.07;;;2.90;99.90;;;;;;6184355;23;20181;-79
2023/01/10 07:24:08;;;;;;;8.13;6.67;;;2.90;99.90;;;;;;6182876;23;20252;-80
2023/01/10 07:26:36;;;;;;;6.40;5.80;;;2.90;99.90;;;;;;6183573;23;20224;-78
2023/01/10 07:29:04;;;;;;;8.27;5.83;;;2.80;99.90;;;;;;6184452;23;20181;-80
2023/01/10 07:31:32;;;;;;;6.63;6.00;;;2.90;99.90;;;;;;6184320;23;20188;-78
2023/01/10 07:34:01;;;;;;;7.27;6.07;;;2.90;99.90;;;;;;6183149;23;20212;-79
2023/01/10 07:36:30;;;;;;;6.90;6.20;;;2.90;99.90;;;;;;6184556;23;20204;-79
2023/01/10 07:39:00;;;;;;;6.83;6.13;;;2.80;99.90;;;;;;6184929;23;20215;-78
2023/01/10 07:41:28;;;;;;;7.17;6.47;;;2.80;99.90;;;;;;6184205;23;20256;-81
2023/01/10 07:43:56;;;;;;;7.10;6.17;;;2.80;99.90;;;;;;6183792;23;20173;-80
2023/01/10 07:46:25;;;;;;;7.40;6.60;;;2.90;99.90;;;;;;6186681;23;20177;-80
2023/01/10 07:48:53;;;;;;;6.37;5.00;;;2.90;99.90;;;;;;6186549;23;20188;-77
2023/01/10 07:51:21;;;;;;;6.03;5.33;;;2.90;99.90;;;;;;6187035;23;20618;-79
2023/01/10 07:53:51;;;;;;;4.30;3.90;;;2.90;99.90;;;;;;6185410;23;20269;-80
2023/01/10 07:56:19;;;;;;;5.23;4.20;;;2.80;99.90;;;;;;6186498;23;20212;-79
2023/01/10 07:58:47;;;;;;;4.20;3.80;;;2.90;99.90;;;;;;6187033;23;20498;-80
2023/01/10 08:01:16;;;;;;;6.70;5.90;;;2.90;99.90;;;;;;6186374;23;20185;-76
2023/01/10 08:03:44;;;;;;;4.30;3.90;;;2.80;99.90;;;;;;6185501;23;20602;-79
2023/01/10 08:06:12;;;;;;;3.90;3.60;;;2.90;99.90;;;;;;6186371;23;20275;-77
2023/01/10 08:08:43;;;;;;;4.20;3.80;;;2.90;99.90;;;;;;6186676;23;20256;-78
2023/01/10 08:11:13;;;;;;;4.33;3.50;;;2.90;99.90;;;;;;6186326;23;20188;-77
2023/01/10 08:13:41;;;;;;;4.57;4.10;;;2.90;99.90;;;;;;6186635;23;20181;-73
2023/01/10 08:16:09;;;;;;;4.00;3.60;;;3.00;99.90;;;;;;6189099;23;20191;-75
2023/01/10 08:18:41;;;;;;;4.33;3.90;;;3.00;99.90;;;;;;6186823;23;20225;-74
2023/01/10 08:21:09;;;;;;;4.50;4.00;;;3.10;99.90;;;;;;6186871;23;20192;-76
2023/01/10 08:23:37;;;;;;;4.70;3.90;;;3.10;99.90;;;;;;6188543;23;20184;-74
2023/01/10 08:26:06;;;;;;;4.20;3.80;;;3.10;99.90;;;;;;6186027;23;20208;-75
2023/01/10 08:28:35;;;;;;;5.80;4.97;;;3.00;99.90;;;;;;6186288;23;20256;-77
2023/01/10 08:31:08;;;;;;;6.50;5.80;;;3.10;99.90;;;;;;6185412;23;20250;-75
2023/01/10 08:33:38;;;;;;;10.43;8.93;;;3.10;99.90;;;;;;6185323;23;20204;-79
2023/01/10 08:36:06;;;;;;;7.83;7.10;;;3.10;99.90;;;;;;6186710;23;20228;-79
2023/01/10 08:38:34;;;;;;;30.47;26.23;;;3.10;99.90;;;;;;6186060;23;20204;-78
2023/01/10 08:41:02;;;;;;;7.10;6.17;;;3.20;99.90;;;;;;6186455;23;20700;-78
2023/01/10 08:43:30;;;;;;;6.93;5.67;;;3.20;99.90;;;;;;6185901;23;20187;-78
2023/01/10 08:46:00;;;;;;;7.30;5.47;;;3.20;99.90;;;;;;6185450;23;20716;-80
2023/01/10 08:48:29;;;;;;;6.40;4.60;;;3.20;99.90;;;;;;6186289;23;20188;-79
2023/01/10 08:53:49;;;;;;;5.40;4.17;;;3.30;99.90;;;;;;6185017;23;20201;-78
2023/01/10 08:56:17;;;;;;;6.80;3.60;;;3.30;99.90;;;;;;6185303;23;20192;-80
2023/01/10 08:58:46;;;;;;;6.87;3.87;;;3.30;99.90;;;;;;6187582;23;20201;-76
2023/01/10 09:01:16;;;;;;;5.20;3.40;;;3.30;99.90;;;;;;6192750;23;20188;-77
2023/01/10 09:03:44;;;;;;;5.37;3.30;;;3.40;99.90;;;;;;6206598;23;20211;-75
2023/01/10 09:06:15;;;;;;;7.13;3.40;;;3.40;99.90;;;;;;6186691;23;20189;-79
2023/01/10 09:08:43;;;;;;;4.70;3.10;;;3.40;99.90;;;;;;6187109;23;20208;-77
2023/01/10 09:11:12;;;;;;;8.60;3.30;;;3.50;99.90;;;;;;6185301;23;20178;-77
2023/01/10 09:13:41;;;;;;;5.30;2.87;;;3.50;99.90;;;;;;6184621;23;20514;-78
2023/01/10 09:16:09;;;;;;;6.93;3.33;;;3.60;99.90;;;;;;6183912;23;20205;-78
2023/01/10 09:18:39;;;;;;;6.67;3.10;;;3.70;99.90;;;;;;6184582;23;20204;-77
2023/01/10 09:21:07;;;;;;;4.00;2.90;;;3.80;99.90;;;;;;6184087;23;20187;-79
2023/01/10 09:23:37;;;;;;;7.00;3.60;;;3.90;99.90;;;;;;6184650;23;20181;-78
2023/01/10 09:26:05;;;;;;;6.83;3.10;;;3.90;99.90;;;;;;6185046;23;20231;-77
2023/01/10 09:28:33;;;;;;;7.07;3.23;;;4.10;99.90;;;;;;6185492;23;20263;-76
2023/01/10 09:31:03;;;;;;;5.90;3.30;;;4.10;99.90;;;;;;6185705;23;20202;-72
2023/01/10 09:33:31;;;;;;;7.80;5.30;;;4.10;99.90;;;;;;6185980;23;20181;-75
2023/01/10 09:36:14;;;;;;;6.73;3.73;;;4.00;99.90;;;;;;6196325;23;20185;-74
2023/01/10 09:38:43;;;;;;;5.97;3.23;;;4.00;99.90;;;;;;6199781;23;20236;-74
2023/01/10 09:41:44;;;;;;;5.83;3.20;;;4.10;99.90;;;;;;6188816;23;20184;-75
2023/01/10 09:44:19;;;;;;;7.83;3.83;;;4.00;99.90;;;;;;6192560;23;20171;-73
2023/01/10 09:46:57;;;;;;;8.43;3.80;;;3.90;99.90;;;;;;6195174;23;20508;-75
2023/01/10 09:49:46;;;;;;;5.83;3.20;;;4.00;99.90;;;;;;6185802;23;20231;-78
2023/01/10 09:52:22;;;;;;;5.60;3.43;;;4.10;99.90;;;;;;6184368;23;20249;-79
2023/01/10 09:54:53;;;;;;;7.40;3.70;;;4.20;99.90;;;;;;6186588;23;20165;-77
2023/01/10 09:57:23;;;;;;;5.93;3.63;;;4.20;99.90;;;;;;6186042;23;20181;-78
2023/01/10 09:59:53;;;;;;;5.77;3.70;;;4.40;99.90;;;;;;6185466;23;20223;-79
2023/01/10 10:02:29;;;;;;;7.33;3.53;;;4.40;99.90;;;;;;6184711;23;20227;-75
2023/01/10 10:05:09;;;;;;;4.83;3.07;;;4.40;99.90;;;;;;6185377;23;20210;-75
2023/01/10 10:07:39;;;;;;;6.67;3.43;;;4.40;99.90;;;;;;6184630;23;20185;-79
2023/01/10 10:10:16;;;;;;;8.57;4.10;;;4.20;99.90;;;;;;6184473;23;20871;-78
2023/01/10 10:12:51;;;;;;;6.57;5.23;;;4.20;99.90;;;;;;6183907;23;20180;-78
2023/01/10 10:15:28;;;;;;;4.20;2.97;;;4.10;99.90;;;;;;6184839;23;20192;-76
2023/01/10 10:18:07;;;;;;;8.83;4.30;;;4.00;99.90;;;;;;6184820;23;20283;-79
2023/01/10 10:20:45;;;;;;;6.83;2.93;;;4.00;99.90;;;;;;6185051;23;20253;-78
2023/01/10 10:23:35;;;;;;;9.23;6.90;;;4.00;99.90;;;;;;6184643;23;20283;-77
2023/01/10 10:26:11;;;;;;;5.83;2.97;;;4.00;99.90;;;;;;6186065;23;20181;-78
2023/01/10 10:29:06;;;;;;;3.83;2.57;;;4.10;99.90;;;;;;6186412;23;20184;-78
2023/01/10 10:31:58;;;;;;;5.17;2.90;;;4.10;99.90;;;;;;6158935;23;20185;-77
2023/01/10 10:34:35;;;;;;;8.07;2.77;;;4.10;99.90;;;;;;6180725;23;20185;-78
2023/01/10 10:37:09;;;;;;;8.20;2.70;;;4.00;99.90;;;;;;6185007;23;20661;-78
2023/01/10 10:39:43;;;;;;;8.23;2.80;;;4.10;99.90;;;;;;6183039;23;20223;-76
2023/01/10 10:42:14;;;;;;;8.30;2.67;;;4.20;99.90;;;;;;6183882;23;20631;-77
2023/01/10 10:44:47;;;;;;;7.97;4.57;;;4.20;99.90;;;;;;6183125;23;20606;-79
2023/01/10 10:47:17;;;;;;;6.23;3.60;;;4.30;99.90;;;;;;6185067;23;20165;-78
2023/01/10 10:49:52;;;;;;;7.93;3.70;;;4.30;99.90;;;;;;6184726;23;20177;-80
2023/01/10 10:52:26;;;;;;;6.57;2.80;;;4.40;99.90;;;;;;6184190;23;20168;-77
2023/01/10 10:54:56;;;;;;;4.90;2.67;;;4.40;99.90;;;;;;6185051;23;20180;-78
2023/01/10 10:57:27;;;;;;;5.50;2.80;;;4.30;99.90;;;;;;6184651;23;20193;-76
2023/01/10 10:59:57;;;;;;;9.90;3.40;;;4.40;99.90;;;;;;6184186;23;20197;-79
2023/01/10 11:02:27;;;;;;;3.67;2.43;;;4.40;99.90;;;;;;6183356;23;20181;-78
2023/01/10 11:05:02;;;;;;;10.93;3.90;;;4.40;99.90;;;;;;6182190;23;20162;-77
2023/01/10 11:07:33;;;;;;;21.00;13.50;;;4.50;99.90;;;;;;6183964;23;20166;-77
2023/01/10 11:12:56;;;;;;;14.93;6.57;;;4.30;99.90;;;;;;6183389;23;20169;-78
2023/01/10 11:15:40;;;;;;;9.50;3.50;;;4.40;99.90;;;;;;6184788;23;20260;-74
2023/01/10 11:18:13;;;;;;;9.23;2.70;;;4.50;99.90;;;;;;6184467;23;20482;-78
2023/01/10 11:20:48;;;;;;;6.83;2.70;;;4.50;99.90;;;;;;6183570;23;20177;-78
2023/01/10 11:23:27;;;;;;;6.30;2.90;;;4.60;99.90;;;;;;6182936;23;20246;-76
2023/01/10 11:25:58;;;;;;;6.10;2.53;;;4.70;99.90;;;;;;6184112;23;20165;-75
2023/01/10 11:28:30;;;;;;;8.17;2.30;;;4.80;99.90;;;;;;6183307;23;20290;-76
2023/01/10 11:31:00;;;;;;;6.47;2.40;;;4.80;99.90;;;;;;6183837;23;20267;-77
2023/01/10 11:33:31;;;;;;;5.87;2.30;;;4.70;99.90;;;;;;6182751;23;20259;-74
2023/01/10 11:36:02;;;;;;;6.85;2.10;;;4.70;99.90;;;;;;6182602;23;20490;-79
2023/01/10 11:38:31;;;;;;;8.13;2.20;;;4.70;99.90;;;;;;6184020;23;20550;-79
2023/01/10 11:41:02;;;;;;;4.80;1.70;;;4.70;99.90;;;;;;6184140;23;20187;-78
2023/01/10 11:43:33;;;;;;;6.77;1.90;;;4.60;99.90;;;;;;6182938;23;20284;-76
2023/01/10 11:46:04;;;;;;;6.67;1.90;;;4.50;99.90;;;;;;6183594;23;20252;-78
2023/01/10 11:48:49;;;;;;;5.77;2.13;;;4.50;99.90;;;;;;6184509;23;20168;-77
2023/01/10 11:51:38;;;;;;;7.27;2.03;;;4.50;99.90;;;;;;6183976;23;20171;-79
2023/01/10 11:54:11;;;;;;;7.07;2.07;;;4.60;99.90;;;;;;6182622;23;20165;-80
2023/01/10 11:56:42;;;;;;;6.80;2.17;;;4.60;99.90;;;;;;6183884;23;20177;-78
2023/01/10 11:59:13;;;;;;;12.47;2.17;;;4.60;99.90;;;;;;6182011;23;20288;-74
2023/01/10 12:01:43;;;;;;;8.50;3.40;;;4.70;99.90;;;;;;6183523;23;20185;-80
2023/01/10 12:04:14;;;;;;;5.80;1.97;;;4.70;99.90;;;;;;6182842;23;20188;-76
2023/01/10 12:06:44;;;;;;;7.50;2.43;;;4.80;99.90;;;;;;6183721;23;20192;-81
2023/01/10 12:09:34;;;;;;;5.50;1.90;;;4.80;99.90;;;;;;6183482;23;20265;-79
2023/01/10 12:12:06;;;;;;;6.47;1.90;;;4.90;99.90;;;;;;6183258;23;20177;-79
2023/01/10 12:14:34;;;;;;;6.17;2.20;;;4.90;99.90;;;;;;6183181;23;20165;-78
2023/01/10 12:17:03;;;;;;;6.83;1.90;;;5.00;99.90;;;;;;6183740;23;20231;-79
2023/01/10 12:19:31;;;;;;;5.40;1.87;;;4.90;99.90;;;;;;6183976;23;20200;-79
2023/01/10 12:22:05;;;;;;;5.70;1.60;;;5.10;99.90;;;;;;6183810;23;20181;-75
2023/01/10 12:24:35;;;;;;;5.20;1.70;;;5.10;99.90;;;;;;6182741;23;20181;-77
2023/01/10 12:27:07;;;;;;;5.50;1.70;;;5.10;99.90;;;;;;6183277;23;20205;-78
2023/01/10 12:29:40;;;;;;;4.23;1.77;;;5.00;99.90;;;;;;6183697;23;20181;-75
2023/01/10 12:32:17;;;;;;;4.90;1.70;;;5.00;99.90;;;;;;6188727;23;20169;-76
2023/01/10 12:34:52;;;;;;;7.77;2.73;;;5.00;99.90;;;;;;6189650;23;20181;-76
2023/01/10 12:37:26;;;;;;;7.57;2.30;;;5.10;99.90;;;;;;6187619;23;20491;-72
2023/01/10 12:40:04;;;;;;;5.40;1.85;;;5.20;99.90;;;;;;6189564;23;20411;-75
2023/01/10 12:45:44;;;;;;;5.65;1.95;;;5.20;99.90;;;;;;6186217;23;20411;-70
2023/01/10 12:48:24;;;;;;;6.93;2.10;;;5.20;99.90;;;;;;6187222;23;20180;-78
2023/01/10 12:50:57;;;;;;;5.27;1.70;;;5.30;99.90;;;;;;6188767;23;20167;-73
2023/01/10 12:53:32;;;;;;;5.73;2.03;;;5.30;99.90;;;;;;6187537;23;20357;-76
2023/01/10 12:56:04;;;;;;;6.27;2.60;;;5.40;99.90;;;;;;6188919;23;20181;-75
2023/01/10 12:58:42;;;;;;;8.70;2.33;;;5.30;99.90;;;;;;6189197;23;20168;-76
2023/01/10 13:01:17;;;;;;;8.10;3.23;;;5.30;99.90;;;;;;6188274;23;20267;-72
2023/01/10 13:03:50;;;;;;;9.33;2.77;;;5.20;99.90;;;;;;6186675;23;20240;-75
2023/01/10 13:06:25;;;;;;;9.07;4.90;;;5.20;99.90;;;;;;6187857;23;20195;-75
2023/01/10 13:08:54;;;;;;;8.27;2.90;;;5.20;99.90;;;;;;6187770;23;20609;-76
2023/01/10 13:11:25;;;;;;;8.73;2.23;;;5.20;99.90;;;;;;6187873;23;20181;-76
2023/01/10 13:14:01;;;;;;;8.48;3.05;;;5.20;99.90;;;;;;6185582;23;20442;-76
2023/01/10 13:16:40;;;;;;;5.50;2.00;;;5.20;99.90;;;;;;6188022;23;20260;-76
2023/01/10 13:19:24;;;;;;;5.33;2.33;;;5.10;99.90;;;;;;6187407;23;20169;-76
2023/01/10 13:22:17;;;;;;;7.13;1.90;;;5.10;99.90;;;;;;6189078;23;20165;-76
2023/01/10 13:24:55;;;;;;;5.90;2.07;;;5.20;99.90;;;;;;6187281;23;20264;-75
2023/01/10 13:27:24;;;;;;;6.90;2.93;;;5.20;99.90;;;;;;6187988;23;20240;-75
2023/01/10 13:29:54;;;;;;;4.53;2.13;;;5.30;99.90;;;;;;6187889;23;20193;-74
2023/01/10 13:32:23;;;;;;;8.67;2.53;;;5.30;99.90;;;;;;6187174;23;20231;-74
2023/01/10 13:34:52;;;;;;;7.23;2.23;;;5.30;99.90;;;;;;6187348;23;20656;-75
2023/01/10 13:37:24;;;;;;;4.70;2.00;;;5.30;99.90;;;;;;6185164;23;20192;-73
2023/01/10 13:39:56;;;;;;;6.07;2.10;;;5.50;99.90;;;;;;6184558;23;20407;-77
2023/01/10 13:45:30;;;;;;;4.97;1.73;;;5.50;99.90;;;;;;6185876;23;20618;-74